DLH1HE EDDF-LIPZ
Flight info
| Callsign | DLH1HE |
|---|---|
| Flight time | 1h 3m |
| Altitude | 31000 |
| Route | ANEKI2L/18 ANEKI Y163 PABLA Z721 UTABA/N0419F290 M738 NATAG/N0356F190 M738 ADOSA/N0344F170 L612 ALBET |
| Aircraft | A321/M-SDE2E3FGIJ1LORWXYZ/HB1 |
Departure
| Time | 2026-05-04 10:56 |
|---|---|
| Airport | Frankfurt Main Airport (EDDF) |
Arrival
| Time | 2026-05-04 11:59 |
|---|---|
| Airport | Venice Marco Polo Airport (LIPZ) |
| Time | Latitude | Longitude | Altitude | Speed | Heading |
|---|---|---|---|---|---|
| 2026-05-04 10:39 | 50.04179 | 8.56095 | 353 ft | 0 kts | 160° |
| 2026-05-04 10:49 | 50.04137 | 8.56120 | 359 ft | 8 kts | 160° |
| 2026-05-04 10:49 | 50.04082 | 8.56077 | 360 ft | 11 kts | 240° |
| 2026-05-04 10:50 | 50.04048 | 8.55947 | 357 ft | 14 kts | 249° |
| 2026-05-04 10:51 | 50.03688 | 8.54442 | 347 ft | 22 kts | 250° |
| 2026-05-04 10:52 | 50.03634 | 8.54212 | 346 ft | 21 kts | 250° |
| 2026-05-04 10:52 | 50.03581 | 8.53994 | 337 ft | 23 kts | 249° |
| 2026-05-04 10:52 | 50.03526 | 8.53763 | 338 ft | 23 kts | 250° |
| 2026-05-04 10:54 | 50.03201 | 8.52596 | 335 ft | 10 kts | 179° |
| 2026-05-04 10:54 | 50.03001 | 8.52597 | 333 ft | 63 kts | 180° |
| 2026-05-04 10:56 | 49.94193 | 8.53030 | 3016 ft | 247 kts | 179° |
| 2026-05-04 10:56 | 49.92436 | 8.53151 | 3676 ft | 257 kts | 179° |
| 2026-05-04 10:56 | 49.90633 | 8.53279 | 4583 ft | 261 kts | 180° |
| 2026-05-04 10:57 | 49.88803 | 8.53406 | 5494 ft | 266 kts | 180° |
| 2026-05-04 10:57 | 49.86948 | 8.53540 | 6393 ft | 269 kts | 180° |
| 2026-05-04 10:57 | 49.85064 | 8.53678 | 7229 ft | 272 kts | 180° |
| 2026-05-04 10:57 | 49.83165 | 8.53806 | 8081 ft | 274 kts | 180° |
| 2026-05-04 10:58 | 49.81254 | 8.53932 | 8965 ft | 276 kts | 179° |
| 2026-05-04 10:58 | 49.79331 | 8.54064 | 9874 ft | 277 kts | 179° |
| 2026-05-04 10:58 | 49.77375 | 8.54082 | 10452 ft | 290 kts | 185° |
| 2026-05-04 10:58 | 49.75286 | 8.53803 | 10691 ft | 313 kts | 184° |
| 2026-05-04 10:59 | 49.73087 | 8.54234 | 11187 ft | 327 kts | 163° |
| 2026-05-04 10:59 | 49.70959 | 8.55556 | 11903 ft | 332 kts | 159° |
| 2026-05-04 10:59 | 49.69544 | 8.56473 | 12411 ft | 334 kts | 159° |
| 2026-05-04 10:59 | 49.67385 | 8.57867 | 13168 ft | 338 kts | 159° |
| 2026-05-04 11:00 | 49.65203 | 8.59274 | 13896 ft | 342 kts | 159° |
| 2026-05-04 11:01 | 49.49381 | 8.69392 | 18402 ft | 362 kts | 160° |
| 2026-05-04 11:02 | 49.47039 | 8.70878 | 18956 ft | 366 kts | 160° |
| 2026-05-04 11:02 | 49.44680 | 8.72375 | 19500 ft | 369 kts | 160° |
| 2026-05-04 11:05 | 49.09645 | 8.94461 | 26431 ft | 405 kts | 161° |
| 2026-05-04 11:06 | 49.07061 | 8.96074 | 26837 ft | 408 kts | 161° |
| 2026-05-04 11:06 | 49.04431 | 8.97723 | 27240 ft | 410 kts | 161° |
| 2026-05-04 11:06 | 49.01786 | 8.99381 | 27634 ft | 412 kts | 161° |
| 2026-05-04 11:06 | 48.99126 | 9.01041 | 28036 ft | 415 kts | 161° |
| 2026-05-04 11:08 | 48.80041 | 9.12877 | 30509 ft | 432 kts | 161° |
| 2026-05-04 11:10 | 48.61441 | 9.24318 | 31001 ft | 403 kts | 162° |
| 2026-05-04 11:12 | 48.40655 | 9.36984 | 31007 ft | 404 kts | 162° |
| 2026-05-04 11:12 | 48.35445 | 9.40156 | 31010 ft | 404 kts | 162° |
| 2026-05-04 11:13 | 48.30223 | 9.43309 | 31017 ft | 404 kts | 162° |
| 2026-05-04 11:13 | 48.24996 | 9.46394 | 30990 ft | 402 kts | 166° |
| 2026-05-04 11:14 | 48.19631 | 9.48739 | 30993 ft | 402 kts | 168° |
| 2026-05-04 11:16 | 47.98555 | 9.59988 | 30988 ft | 413 kts | 148° |
| 2026-05-04 11:16 | 47.93907 | 9.65053 | 30999 ft | 414 kts | 148° |
| 2026-05-04 11:17 | 47.89244 | 9.70086 | 30989 ft | 414 kts | 148° |
| 2026-05-04 11:19 | 47.70558 | 9.90141 | 30988 ft | 414 kts | 148° |
| 2026-05-04 11:19 | 47.65880 | 9.95128 | 30988 ft | 414 kts | 148° |
| 2026-05-04 11:20 | 47.61200 | 10.00108 | 30991 ft | 414 kts | 148° |
| 2026-05-04 11:20 | 47.56515 | 10.05081 | 30989 ft | 414 kts | 148° |
| 2026-05-04 11:22 | 47.37548 | 10.24235 | 31041 ft | 412 kts | 152° |
| 2026-05-04 11:23 | 47.32662 | 10.28675 | 31061 ft | 413 kts | 152° |
| 2026-05-04 11:25 | 47.15567 | 10.44064 | 31072 ft | 412 kts | 152° |
| 2026-05-04 11:25 | 47.10670 | 10.48453 | 31062 ft | 411 kts | 152° |
| 2026-05-04 11:27 | 46.86826 | 10.61411 | 31091 ft | 407 kts | 165° |
| 2026-05-04 11:28 | 46.81411 | 10.63847 | 31091 ft | 407 kts | 165° |
| 2026-05-04 11:28 | 46.76031 | 10.66264 | 31082 ft | 407 kts | 165° |
| 2026-05-04 11:29 | 46.70590 | 10.68534 | 31088 ft | 405 kts | 170° |
| 2026-05-04 11:29 | 46.65083 | 10.70297 | 31091 ft | 406 kts | 170° |
| 2026-05-04 11:33 | 46.26692 | 10.82748 | 30208 ft | 393 kts | 170° |
| 2026-05-04 11:33 | 46.24031 | 10.83606 | 29912 ft | 391 kts | 170° |
| 2026-05-04 11:33 | 46.21375 | 10.84463 | 29631 ft | 390 kts | 169° |
| 2026-05-04 11:34 | 46.18733 | 10.85329 | 29345 ft | 389 kts | 169° |
| 2026-05-04 11:34 | 46.16102 | 10.86188 | 29027 ft | 385 kts | 169° |
| 2026-05-04 11:34 | 46.13502 | 10.87026 | 28572 ft | 382 kts | 170° |
| 2026-05-04 11:34 | 46.10916 | 10.87847 | 28125 ft | 380 kts | 170° |
| 2026-05-04 11:35 | 46.08342 | 10.88674 | 27686 ft | 378 kts | 170° |
| 2026-05-04 11:35 | 46.05785 | 10.89494 | 27241 ft | 375 kts | 170° |
| 2026-05-04 11:35 | 46.03245 | 10.90308 | 26807 ft | 373 kts | 170° |
| 2026-05-04 11:35 | 46.00717 | 10.91120 | 26364 ft | 371 kts | 169° |
| 2026-05-04 11:36 | 45.98208 | 10.91927 | 25926 ft | 369 kts | 170° |
| 2026-05-04 11:36 | 45.95713 | 10.92715 | 25505 ft | 366 kts | 170° |
| 2026-05-04 11:36 | 45.93260 | 10.93500 | 25083 ft | 365 kts | 170° |
| 2026-05-04 11:36 | 45.90788 | 10.94282 | 24659 ft | 363 kts | 170° |
| 2026-05-04 11:37 | 45.88292 | 10.95075 | 24229 ft | 361 kts | 169° |
| 2026-05-04 11:37 | 45.85879 | 10.95848 | 23813 ft | 359 kts | 169° |
| 2026-05-04 11:37 | 45.83443 | 10.96616 | 23337 ft | 357 kts | 169° |
| 2026-05-04 11:37 | 45.81034 | 10.97381 | 22921 ft | 353 kts | 169° |
| 2026-05-04 11:38 | 45.78621 | 10.98143 | 22494 ft | 349 kts | 169° |
| 2026-05-04 11:38 | 45.76294 | 10.98886 | 22093 ft | 345 kts | 169° |
| 2026-05-04 11:38 | 45.73964 | 10.99625 | 21681 ft | 341 kts | 169° |
| 2026-05-04 11:38 | 45.71654 | 11.00354 | 21277 ft | 338 kts | 169° |
| 2026-05-04 11:39 | 45.69370 | 11.01073 | 20877 ft | 335 kts | 169° |
| 2026-05-04 11:39 | 45.67132 | 11.01932 | 20466 ft | 333 kts | 161° |
| 2026-05-04 11:40 | 45.58138 | 11.16674 | 18030 ft | 334 kts | 125° |
| 2026-05-04 11:41 | 45.56892 | 11.19461 | 17630 ft | 331 kts | 125° |
| 2026-05-04 11:41 | 45.55655 | 11.22213 | 17228 ft | 328 kts | 126° |
| 2026-05-04 11:41 | 45.54424 | 11.24938 | 16836 ft | 326 kts | 126° |
| 2026-05-04 11:41 | 45.53197 | 11.27643 | 16431 ft | 323 kts | 126° |
| 2026-05-04 11:42 | 45.51984 | 11.30326 | 16041 ft | 321 kts | 125° |
| 2026-05-04 11:42 | 45.50787 | 11.32991 | 15640 ft | 318 kts | 126° |
| 2026-05-04 11:42 | 45.49593 | 11.35630 | 15253 ft | 315 kts | 126° |
| 2026-05-04 11:42 | 45.48408 | 11.38248 | 14855 ft | 313 kts | 126° |
| 2026-05-04 11:43 | 45.47231 | 11.40849 | 14472 ft | 312 kts | 126° |
| 2026-05-04 11:43 | 45.46055 | 11.43427 | 14082 ft | 310 kts | 126° |
| 2026-05-04 11:43 | 45.44886 | 11.45993 | 13672 ft | 308 kts | 126° |
| 2026-05-04 11:43 | 45.43730 | 11.48541 | 13279 ft | 305 kts | 126° |
| 2026-05-04 11:44 | 45.42550 | 11.51046 | 13018 ft | 305 kts | 131° |
| 2026-05-04 11:44 | 45.41177 | 11.53298 | 12719 ft | 299 kts | 135° |
| 2026-05-04 11:44 | 45.39792 | 11.55475 | 12381 ft | 295 kts | 134° |
| 2026-05-04 11:44 | 45.38428 | 11.57633 | 12051 ft | 292 kts | 134° |
| 2026-05-04 11:45 | 45.37070 | 11.59777 | 11723 ft | 290 kts | 134° |
| 2026-05-04 11:45 | 45.35759 | 11.61952 | 11393 ft | 290 kts | 127° |
| 2026-05-04 11:45 | 45.34827 | 11.64497 | 11065 ft | 292 kts | 111° |
| 2026-05-04 11:45 | 45.34431 | 11.67338 | 10733 ft | 295 kts | 94° |
| 2026-05-04 11:46 | 45.34506 | 11.70262 | 10395 ft | 297 kts | 88° |
| 2026-05-04 11:46 | 45.34653 | 11.73190 | 10058 ft | 297 kts | 88° |
| 2026-05-04 11:46 | 45.34793 | 11.76108 | 9696 ft | 295 kts | 88° |
| 2026-05-04 11:46 | 45.34926 | 11.78983 | 9373 ft | 288 kts | 88° |
| 2026-05-04 11:47 | 45.34916 | 11.81776 | 9044 ft | 278 kts | 101° |
| 2026-05-04 11:47 | 45.34401 | 11.84358 | 8743 ft | 267 kts | 117° |
| 2026-05-04 11:47 | 45.33439 | 11.86562 | 8432 ft | 260 kts | 132° |
| 2026-05-04 11:47 | 45.32251 | 11.88479 | 8144 ft | 255 kts | 134° |
| 2026-05-04 11:48 | 45.30943 | 11.90086 | 7868 ft | 244 kts | 155° |
| 2026-05-04 11:48 | 45.29899 | 11.90608 | 7684 ft | 240 kts | 173° |
| 2026-05-04 11:48 | 45.28266 | 11.90441 | 7412 ft | 236 kts | 200° |
| 2026-05-04 11:48 | 45.26469 | 11.88743 | 6970 ft | 237 kts | 221° |
| 2026-05-04 11:49 | 45.25640 | 11.87685 | 6768 ft | 237 kts | 221° |
| 2026-05-04 11:49 | 45.24025 | 11.85632 | 6408 ft | 234 kts | 220° |
| 2026-05-04 11:49 | 45.22652 | 11.84454 | 6175 ft | 232 kts | 197° |
| 2026-05-04 11:49 | 45.21067 | 11.84273 | 5917 ft | 230 kts | 170° |
| 2026-05-04 11:50 | 45.20050 | 11.84755 | 5724 ft | 228 kts | 153° |
| 2026-05-04 11:50 | 45.18867 | 11.86221 | 5466 ft | 228 kts | 125° |
| 2026-05-04 11:50 | 45.18271 | 11.88291 | 5193 ft | 230 kts | 100° |
| 2026-05-04 11:50 | 45.18089 | 11.90546 | 4916 ft | 230 kts | 92° |
| 2026-05-04 11:51 | 45.18293 | 11.92788 | 4639 ft | 231 kts | 73° |
| 2026-05-04 11:51 | 45.18995 | 11.94829 | 4357 ft | 232 kts | 53° |
| 2026-05-04 11:51 | 45.20086 | 11.96465 | 4122 ft | 232 kts | 41° |
| 2026-05-04 11:51 | 45.21292 | 11.97971 | 4010 ft | 231 kts | 41° |
| 2026-05-04 11:52 | 45.22508 | 11.99479 | 3988 ft | 233 kts | 40° |
| 2026-05-04 11:52 | 45.23730 | 12.00993 | 4002 ft | 233 kts | 41° |
| 2026-05-04 11:52 | 45.24937 | 12.02516 | 4004 ft | 232 kts | 41° |
| 2026-05-04 11:52 | 45.26140 | 12.04049 | 4002 ft | 233 kts | 41° |
| 2026-05-04 11:53 | 45.27348 | 12.05585 | 4001 ft | 234 kts | 41° |
| 2026-05-04 11:53 | 45.28561 | 12.07128 | 4003 ft | 234 kts | 41° |
| 2026-05-04 11:53 | 45.29772 | 12.08667 | 4002 ft | 234 kts | 41° |
| 2026-05-04 11:53 | 45.30984 | 12.10208 | 3989 ft | 234 kts | 41° |
| 2026-05-04 11:55 | 45.38613 | 12.19936 | 2834 ft | 194 kts | 41° |
| 2026-05-04 11:55 | 45.39601 | 12.21200 | 2586 ft | 188 kts | 41° |
| 2026-05-04 11:56 | 45.40564 | 12.22431 | 2340 ft | 184 kts | 41° |
| 2026-05-04 11:56 | 45.41510 | 12.23640 | 2098 ft | 182 kts | 41° |
| 2026-05-04 11:56 | 45.42440 | 12.24831 | 1858 ft | 175 kts | 42° |
| 2026-05-04 11:56 | 45.43319 | 12.25955 | 1635 ft | 165 kts | 42° |
| 2026-05-04 11:57 | 45.44150 | 12.27020 | 1423 ft | 157 kts | 42° |
| 2026-05-04 11:57 | 45.44942 | 12.28035 | 1205 ft | 150 kts | 43° |
| 2026-05-04 11:57 | 45.45712 | 12.29021 | 1017 ft | 148 kts | 43° |
| 2026-05-04 11:57 | 45.46474 | 12.29999 | 822 ft | 146 kts | 43° |
| 2026-05-04 11:58 | 45.47225 | 12.30962 | 637 ft | 145 kts | 44° |
| 2026-05-04 11:58 | 45.47970 | 12.31913 | 433 ft | 144 kts | 44° |
| 2026-05-04 11:58 | 45.48715 | 12.32870 | 244 ft | 144 kts | 45° |
| 2026-05-04 11:58 | 45.49456 | 12.33823 | 55 ft | 142 kts | 45° |
| 2026-05-04 11:59 | 45.50124 | 12.34690 | 16 ft | 111 kts | 42° |
| 2026-05-04 11:59 | 45.50552 | 12.35239 | 13 ft | 46 kts | 41° |
| 2026-05-04 11:59 | 45.50753 | 12.35407 | 16 ft | 26 kts | 18° |
| 2026-05-04 11:59 | 45.50886 | 12.35451 | 16 ft | 17 kts | 10° |
| 2026-05-04 12:00 | 45.50960 | 12.35423 | 17 ft | 10 kts | 295° |
| 2026-05-04 12:00 | 45.50973 | 12.35307 | 17 ft | 15 kts | 266° |
| 2026-05-04 12:00 | 45.50923 | 12.35161 | 16 ft | 18 kts | 225° |
| 2026-05-04 12:00 | 45.50824 | 12.35033 | 16 ft | 20 kts | 222° |
| 2026-05-04 12:01 | 45.50714 | 12.34892 | 16 ft | 22 kts | 221° |
| 2026-05-04 12:01 | 45.50614 | 12.34747 | 15 ft | 17 kts | 247° |
| 2026-05-04 12:02 | 45.50552 | 12.34224 | 16 ft | 0 kts | 267° |